sensor_id;sensor_type;location;lat;lon;timestamp;P1;durP1;ratioP1;P2;durP2;ratioP2
76417;SDS011;65250;47.602;19.002;2023-09-19T00:00:39;7.97;;;4.80;;
76417;SDS011;65250;47.602;19.002;2023-09-19T00:03:07;7.43;;;4.53;;
76417;SDS011;65250;47.602;19.002;2023-09-19T00:05:36;8.30;;;4.72;;
76417;SDS011;65250;47.602;19.002;2023-09-19T00:08:05;9.50;;;5.03;;
76417;SDS011;65250;47.602;19.002;2023-09-19T00:10:32;8.82;;;4.97;;
76417;SDS011;65250;47.602;19.002;2023-09-19T00:13:04;8.75;;;4.93;;
76417;SDS011;65250;47.602;19.002;2023-09-19T00:15:39;7.73;;;4.97;;
76417;SDS011;65250;47.602;19.002;2023-09-19T00:18:08;12.73;;;5.60;;
76417;SDS011;65250;47.602;19.002;2023-09-19T00:20:36;7.88;;;4.63;;
76417;SDS011;65250;47.602;19.002;2023-09-19T00:23:04;7.07;;;5.00;;
76417;SDS011;65250;47.602;19.002;2023-09-19T00:25:38;5.32;;;4.55;;
76417;SDS011;65250;47.602;19.002;2023-09-19T00:28:05;11.17;;;5.97;;
76417;SDS011;65250;47.602;19.002;2023-09-19T00:30:34;8.52;;;5.20;;
76417;SDS011;65250;47.602;19.002;2023-09-19T00:33:01;7.68;;;5.28;;
76417;SDS011;65250;47.602;19.002;2023-09-19T00:35:32;7.18;;;5.55;;
76417;SDS011;65250;47.602;19.002;2023-09-19T00:38:00;12.02;;;5.88;;
76417;SDS011;65250;47.602;19.002;2023-09-19T00:40:27;11.13;;;5.53;;
76417;SDS011;65250;47.602;19.002;2023-09-19T00:42:57;8.07;;;5.72;;
76417;SDS011;65250;47.602;19.002;2023-09-19T00:45:26;8.60;;;5.57;;
76417;SDS011;65250;47.602;19.002;2023-09-19T00:47:55;8.80;;;5.57;;
76417;SDS011;65250;47.602;19.002;2023-09-19T00:50:24;9.88;;;5.68;;
76417;SDS011;65250;47.602;19.002;2023-09-19T00:52:53;7.33;;;5.50;;
76417;SDS011;65250;47.602;19.002;2023-09-19T00:55:25;12.15;;;6.47;;
76417;SDS011;65250;47.602;19.002;2023-09-19T00:57:52;10.20;;;6.25;;
76417;SDS011;65250;47.602;19.002;2023-09-19T01:00:22;11.52;;;5.35;;
76417;SDS011;65250;47.602;19.002;2023-09-19T01:02:50;8.00;;;5.40;;
76417;SDS011;65250;47.602;19.002;2023-09-19T01:05:17;9.73;;;5.30;;
76417;SDS011;65250;47.602;19.002;2023-09-19T01:07:45;7.10;;;5.97;;
76417;SDS011;65250;47.602;19.002;2023-09-19T01:10:13;10.52;;;5.28;;
76417;SDS011;65250;47.602;19.002;2023-09-19T01:18:12;9.50;;;5.97;;
76417;SDS011;65250;47.602;19.002;2023-09-19T01:23:21;7.35;;;5.68;;
76417;SDS011;65250;47.602;19.002;2023-09-19T01:26:03;10.40;;;5.85;;
76417;SDS011;65250;47.602;19.002;2023-09-19T01:29:11;10.00;;;5.90;;
76417;SDS011;65250;47.602;19.002;2023-09-19T01:31:35;10.07;;;5.30;;
76417;SDS011;65250;47.602;19.002;2023-09-19T01:34:04;8.68;;;5.70;;
76417;SDS011;65250;47.602;19.002;2023-09-19T01:36:37;7.30;;;5.43;;
76417;SDS011;65250;47.602;19.002;2023-09-19T01:39:06;9.70;;;5.90;;
76417;SDS011;65250;47.602;19.002;2023-09-19T01:41:41;15.00;;;6.30;;
76417;SDS011;65250;47.602;19.002;2023-09-19T01:44:12;7.13;;;5.87;;
76417;SDS011;65250;47.602;19.002;2023-09-19T01:46:48;8.38;;;6.15;;
76417;SDS011;65250;47.602;19.002;2023-09-19T01:49:18;12.93;;;5.95;;
76417;SDS011;65250;47.602;19.002;2023-09-19T01:54:48;9.68;;;6.40;;
76417;SDS011;65250;47.602;19.002;2023-09-19T01:57:32;9.43;;;5.90;;
76417;SDS011;65250;47.602;19.002;2023-09-19T02:00:03;9.00;;;5.60;;
76417;SDS011;65250;47.602;19.002;2023-09-19T02:02:36;8.35;;;6.22;;
76417;SDS011;65250;47.602;19.002;2023-09-19T02:05:04;10.48;;;6.07;;
76417;SDS011;65250;47.602;19.002;2023-09-19T02:07:31;9.00;;;6.40;;
76417;SDS011;65250;47.602;19.002;2023-09-19T02:09:59;21.23;;;6.80;;
76417;SDS011;65250;47.602;19.002;2023-09-19T02:12:32;10.82;;;6.30;;
76417;SDS011;65250;47.602;19.002;2023-09-19T02:14:59;8.50;;;6.30;;
76417;SDS011;65250;47.602;19.002;2023-09-19T02:17:26;10.20;;;6.28;;
76417;SDS011;65250;47.602;19.002;2023-09-19T02:19:53;10.85;;;6.30;;
76417;SDS011;65250;47.602;19.002;2023-09-19T02:22:21;14.80;;;6.17;;
76417;SDS011;65250;47.602;19.002;2023-09-19T02:24:49;11.30;;;5.97;;
76417;SDS011;65250;47.602;19.002;2023-09-19T02:27:17;11.73;;;6.10;;
76417;SDS011;65250;47.602;19.002;2023-09-19T02:29:44;12.18;;;6.03;;
76417;SDS011;65250;47.602;19.002;2023-09-19T02:32:11;16.80;;;6.63;;
76417;SDS011;65250;47.602;19.002;2023-09-19T02:34:38;11.27;;;5.63;;
76417;SDS011;65250;47.602;19.002;2023-09-19T02:37:08;14.85;;;6.40;;
76417;SDS011;65250;47.602;19.002;2023-09-19T02:39:35;10.52;;;5.93;;
76417;SDS011;65250;47.602;19.002;2023-09-19T02:42:03;9.07;;;6.40;;
76417;SDS011;65250;47.602;19.002;2023-09-19T02:44:30;13.05;;;6.18;;
76417;SDS011;65250;47.602;19.002;2023-09-19T02:46:57;8.90;;;5.73;;
76417;SDS011;65250;47.602;19.002;2023-09-19T02:49:25;11.63;;;5.80;;
76417;SDS011;65250;47.602;19.002;2023-09-19T02:51:52;9.15;;;6.20;;
76417;SDS011;65250;47.602;19.002;2023-09-19T02:54:19;12.18;;;5.60;;
76417;SDS011;65250;47.602;19.002;2023-09-19T02:56:46;13.65;;;5.75;;
76417;SDS011;65250;47.602;19.002;2023-09-19T02:59:13;13.10;;;6.30;;
76417;SDS011;65250;47.602;19.002;2023-09-19T03:01:43;9.45;;;6.05;;
76417;SDS011;65250;47.602;19.002;2023-09-19T03:04:10;17.42;;;6.85;;
76417;SDS011;65250;47.602;19.002;2023-09-19T03:06:38;9.57;;;5.72;;
76417;SDS011;65250;47.602;19.002;2023-09-19T03:09:05;12.57;;;5.65;;
76417;SDS011;65250;47.602;19.002;2023-09-19T03:11:38;9.73;;;6.20;;
76417;SDS011;65250;47.602;19.002;2023-09-19T03:14:06;11.10;;;6.50;;
76417;SDS011;65250;47.602;19.002;2023-09-19T03:16:33;10.65;;;5.88;;
76417;SDS011;65250;47.602;19.002;2023-09-19T03:19:00;11.30;;;5.85;;
76417;SDS011;65250;47.602;19.002;2023-09-19T03:21:27;11.25;;;6.10;;
76417;SDS011;65250;47.602;19.002;2023-09-19T03:23:56;13.43;;;6.60;;
76417;SDS011;65250;47.602;19.002;2023-09-19T03:26:23;10.05;;;5.63;;
76417;SDS011;65250;47.602;19.002;2023-09-19T03:28:50;12.27;;;5.95;;
76417;SDS011;65250;47.602;19.002;2023-09-19T03:31:16;13.57;;;6.28;;
76417;SDS011;65250;47.602;19.002;2023-09-19T03:33:44;9.45;;;5.72;;
76417;SDS011;65250;47.602;19.002;2023-09-19T03:36:11;10.30;;;6.70;;
76417;SDS011;65250;47.602;19.002;2023-09-19T03:38:40;11.30;;;6.32;;
76417;SDS011;65250;47.602;19.002;2023-09-19T03:41:06;7.95;;;5.45;;
76417;SDS011;65250;47.602;19.002;2023-09-19T03:43:34;12.55;;;6.47;;
76417;SDS011;65250;47.602;19.002;2023-09-19T03:46:01;11.20;;;6.18;;
76417;SDS011;65250;47.602;19.002;2023-09-19T03:48:30;10.63;;;5.93;;
76417;SDS011;65250;47.602;19.002;2023-09-19T03:50:58;11.07;;;6.18;;
76417;SDS011;65250;47.602;19.002;2023-09-19T03:53:25;12.85;;;6.32;;
76417;SDS011;65250;47.602;19.002;2023-09-19T03:55:52;10.90;;;6.35;;
76417;SDS011;65250;47.602;19.002;2023-09-19T03:58:19;9.55;;;5.85;;
76417;SDS011;65250;47.602;19.002;2023-09-19T04:00:47;13.57;;;5.73;;
76417;SDS011;65250;47.602;19.002;2023-09-19T04:03:16;12.52;;;5.43;;
76417;SDS011;65250;47.602;19.002;2023-09-19T04:05:47;12.30;;;6.65;;
76417;SDS011;65250;47.602;19.002;2023-09-19T04:08:14;7.22;;;4.75;;
76417;SDS011;65250;47.602;19.002;2023-09-19T04:10:42;8.02;;;4.10;;
76417;SDS011;65250;47.602;19.002;2023-09-19T04:13:10;6.20;;;3.80;;
76417;SDS011;65250;47.602;19.002;2023-09-19T04:15:37;5.95;;;3.60;;
76417;SDS011;65250;47.602;19.002;2023-09-19T04:18:04;4.72;;;3.35;;
76417;SDS011;65250;47.602;19.002;2023-09-19T04:20:31;7.30;;;2.70;;
76417;SDS011;65250;47.602;19.002;2023-09-19T04:22:58;4.78;;;2.55;;
76417;SDS011;65250;47.602;19.002;2023-09-19T04:25:26;6.53;;;2.53;;
76417;SDS011;65250;47.602;19.002;2023-09-19T04:27:54;7.95;;;2.47;;
76417;SDS011;65250;47.602;19.002;2023-09-19T04:30:21;5.22;;;1.90;;
76417;SDS011;65250;47.602;19.002;2023-09-19T04:32:48;4.57;;;2.00;;
76417;SDS011;65250;47.602;19.002;2023-09-19T04:35:18;4.93;;;1.67;;
76417;SDS011;65250;47.602;19.002;2023-09-19T04:37:45;4.27;;;1.40;;
76417;SDS011;65250;47.602;19.002;2023-09-19T04:40:12;3.17;;;1.50;;
76417;SDS011;65250;47.602;19.002;2023-09-19T04:42:39;5.15;;;1.50;;
76417;SDS011;65250;47.602;19.002;2023-09-19T04:45:07;2.25;;;1.20;;
76417;SDS011;65250;47.602;19.002;2023-09-19T04:47:36;3.50;;;1.27;;
76417;SDS011;65250;47.602;19.002;2023-09-19T04:50:06;7.53;;;1.33;;
76417;SDS011;65250;47.602;19.002;2023-09-19T04:52:41;2.05;;;1.20;;
76417;SDS011;65250;47.602;19.002;2023-09-19T04:55:12;4.68;;;1.20;;
76417;SDS011;65250;47.602;19.002;2023-09-19T04:57:49;1.83;;;0.70;;
76417;SDS011;65250;47.602;19.002;2023-09-19T05:00:17;2.05;;;0.90;;
76417;SDS011;65250;47.602;19.002;2023-09-19T05:02:52;2.20;;;0.70;;
76417;SDS011;65250;47.602;19.002;2023-09-19T05:05:23;3.05;;;1.00;;
76417;SDS011;65250;47.602;19.002;2023-09-19T05:07:52;1.23;;;0.63;;
76417;SDS011;65250;47.602;19.002;2023-09-19T05:10:21;2.50;;;0.80;;
76417;SDS011;65250;47.602;19.002;2023-09-19T05:12:48;1.70;;;0.90;;
76417;SDS011;65250;47.602;19.002;2023-09-19T05:15:18;1.33;;;0.70;;
76417;SDS011;65250;47.602;19.002;2023-09-19T05:17:49;3.38;;;1.00;;
76417;SDS011;65250;47.602;19.002;2023-09-19T05:20:22;0.95;;;0.60;;
76417;SDS011;65250;47.602;19.002;2023-09-19T05:23:05;5.18;;;0.80;;
76417;SDS011;65250;47.602;19.002;2023-09-19T05:25:36;2.05;;;0.70;;
76417;SDS011;65250;47.602;19.002;2023-09-19T05:28:06;1.73;;;0.80;;
76417;SDS011;65250;47.602;19.002;2023-09-19T05:30:34;2.00;;;0.55;;
76417;SDS011;65250;47.602;19.002;2023-09-19T05:33:05;1.25;;;0.90;;
76417;SDS011;65250;47.602;19.002;2023-09-19T05:35:32;5.53;;;0.77;;
76417;SDS011;65250;47.602;19.002;2023-09-19T05:37:59;0.75;;;0.75;;
76417;SDS011;65250;47.602;19.002;2023-09-19T05:40:26;2.70;;;1.47;;
76417;SDS011;65250;47.602;19.002;2023-09-19T05:42:54;10.15;;;2.88;;
76417;SDS011;65250;47.602;19.002;2023-09-19T05:45:21;5.75;;;2.70;;
76417;SDS011;65250;47.602;19.002;2023-09-19T05:47:52;10.05;;;2.65;;
76417;SDS011;65250;47.602;19.002;2023-09-19T05:50:22;7.88;;;2.53;;
76417;SDS011;65250;47.602;19.002;2023-09-19T05:52:51;5.80;;;2.13;;
76417;SDS011;65250;47.602;19.002;2023-09-19T05:55:19;10.43;;;1.95;;
76417;SDS011;65250;47.602;19.002;2023-09-19T05:57:51;8.77;;;1.88;;
76417;SDS011;65250;47.602;19.002;2023-09-19T06:00:22;7.60;;;2.05;;
76417;SDS011;65250;47.602;19.002;2023-09-19T06:02:54;7.55;;;2.05;;
76417;SDS011;65250;47.602;19.002;2023-09-19T06:05:22;4.90;;;1.50;;
76417;SDS011;65250;47.602;19.002;2023-09-19T06:07:50;2.47;;;1.10;;
76417;SDS011;65250;47.602;19.002;2023-09-19T06:10:19;1.45;;;1.00;;
76417;SDS011;65250;47.602;19.002;2023-09-19T06:12:50;1.23;;;0.80;;
76417;SDS011;65250;47.602;19.002;2023-09-19T06:15:17;3.78;;;0.98;;
76417;SDS011;65250;47.602;19.002;2023-09-19T06:17:49;2.90;;;1.10;;
76417;SDS011;65250;47.602;19.002;2023-09-19T06:20:17;2.97;;;1.13;;
76417;SDS011;65250;47.602;19.002;2023-09-19T06:22:46;2.28;;;1.00;;
76417;SDS011;65250;47.602;19.002;2023-09-19T06:25:14;3.72;;;1.35;;
76417;SDS011;65250;47.602;19.002;2023-09-19T06:27:48;2.60;;;1.08;;
76417;SDS011;65250;47.602;19.002;2023-09-19T06:30:15;1.83;;;1.67;;
76417;SDS011;65250;47.602;19.002;2023-09-19T06:32:44;4.03;;;1.35;;
76417;SDS011;65250;47.602;19.002;2023-09-19T06:35:12;4.15;;;1.00;;
76417;SDS011;65250;47.602;19.002;2023-09-19T06:37:40;1.75;;;0.80;;
76417;SDS011;65250;47.602;19.002;2023-09-19T06:40:08;6.18;;;0.90;;
76417;SDS011;65250;47.602;19.002;2023-09-19T06:42:46;4.50;;;1.07;;
76417;SDS011;65250;47.602;19.002;2023-09-19T06:45:16;1.52;;;0.70;;
76417;SDS011;65250;47.602;19.002;2023-09-19T06:47:46;2.38;;;0.70;;
76417;SDS011;65250;47.602;19.002;2023-09-19T06:50:18;2.35;;;0.82;;
76417;SDS011;65250;47.602;19.002;2023-09-19T06:52:46;3.47;;;1.13;;
76417;SDS011;65250;47.602;19.002;2023-09-19T06:55:20;2.33;;;0.90;;
76417;SDS011;65250;47.602;19.002;2023-09-19T06:57:52;2.08;;;0.70;;
76417;SDS011;65250;47.602;19.002;2023-09-19T07:00:21;2.47;;;0.77;;
76417;SDS011;65250;47.602;19.002;2023-09-19T07:02:55;4.97;;;0.70;;
76417;SDS011;65250;47.602;19.002;2023-09-19T07:05:24;2.40;;;0.60;;
76417;SDS011;65250;47.602;19.002;2023-09-19T07:07:51;1.70;;;0.60;;
76417;SDS011;65250;47.602;19.002;2023-09-19T07:10:18;5.63;;;0.73;;
76417;SDS011;65250;47.602;19.002;2023-09-19T07:12:47;0.60;;;0.40;;
76417;SDS011;65250;47.602;19.002;2023-09-19T07:15:14;0.90;;;0.52;;
76417;SDS011;65250;47.602;19.002;2023-09-19T07:17:41;0.73;;;0.40;;
76417;SDS011;65250;47.602;19.002;2023-09-19T07:20:08;4.17;;;0.70;;
76417;SDS011;65250;47.602;19.002;2023-09-19T07:22:37;0.68;;;0.40;;
76417;SDS011;65250;47.602;19.002;2023-09-19T07:25:06;1.70;;;0.50;;
76417;SDS011;65250;47.602;19.002;2023-09-19T07:27:33;3.45;;;0.73;;
76417;SDS011;65250;47.602;19.002;2023-09-19T07:30:00;0.95;;;0.60;;
76417;SDS011;65250;47.602;19.002;2023-09-19T07:32:27;1.13;;;0.63;;
76417;SDS011;65250;47.602;19.002;2023-09-19T07:34:54;1.58;;;0.38;;
76417;SDS011;65250;47.602;19.002;2023-09-19T07:37:22;1.38;;;0.50;;
76417;SDS011;65250;47.602;19.002;2023-09-19T07:39:49;0.70;;;0.50;;
76417;SDS011;65250;47.602;19.002;2023-09-19T07:42:17;1.88;;;0.50;;
76417;SDS011;65250;47.602;19.002;2023-09-19T07:44:45;0.57;;;0.50;;
76417;SDS011;65250;47.602;19.002;2023-09-19T07:47:18;2.50;;;0.82;;
76417;SDS011;65250;47.602;19.002;2023-09-19T07:49:46;2.92;;;0.70;;
76417;SDS011;65250;47.602;19.002;2023-09-19T07:52:14;3.03;;;0.70;;
76417;SDS011;65250;47.602;19.002;2023-09-19T07:54:42;1.67;;;0.60;;
76417;SDS011;65250;47.602;19.002;2023-09-19T07:57:11;2.87;;;0.43;;
76417;SDS011;65250;47.602;19.002;2023-09-19T07:59:38;3.95;;;0.90;;
76417;SDS011;65250;47.602;19.002;2023-09-19T08:02:05;4.82;;;0.77;;
76417;SDS011;65250;47.602;19.002;2023-09-19T08:04:32;9.82;;;1.00;;
76417;SDS011;65250;47.602;19.002;2023-09-19T08:07:00;3.10;;;1.10;;
76417;SDS011;65250;47.602;19.002;2023-09-19T08:09:30;1.90;;;0.70;;
76417;SDS011;65250;47.602;19.002;2023-09-19T08:11:59;8.18;;;0.95;;
76417;SDS011;65250;47.602;19.002;2023-09-19T08:14:29;1.55;;;0.80;;
76417;SDS011;65250;47.602;19.002;2023-09-19T08:16:56;4.22;;;1.20;;
76417;SDS011;65250;47.602;19.002;2023-09-19T08:19:25;3.83;;;0.82;;
76417;SDS011;65250;47.602;19.002;2023-09-19T08:21:55;4.50;;;1.10;;
76417;SDS011;65250;47.602;19.002;2023-09-19T08:24:25;5.50;;;1.10;;
76417;SDS011;65250;47.602;19.002;2023-09-19T08:26:56;3.78;;;0.70;;
76417;SDS011;65250;47.602;19.002;2023-09-19T08:29:23;4.00;;;0.65;;
76417;SDS011;65250;47.602;19.002;2023-09-19T08:31:58;1.58;;;0.68;;
76417;SDS011;65250;47.602;19.002;2023-09-19T08:34:25;1.27;;;0.77;;
76417;SDS011;65250;47.602;19.002;2023-09-19T08:36:53;1.65;;;0.85;;
76417;SDS011;65250;47.602;19.002;2023-09-19T08:39:23;3.55;;;0.88;;
76417;SDS011;65250;47.602;19.002;2023-09-19T08:42:00;4.05;;;0.80;;
76417;SDS011;65250;47.602;19.002;2023-09-19T08:44:28;2.03;;;0.82;;
76417;SDS011;65250;47.602;19.002;2023-09-19T08:47:03;3.23;;;1.00;;
76417;SDS011;65250;47.602;19.002;2023-09-19T08:53:02;3.75;;;0.95;;
76417;SDS011;65250;47.602;19.002;2023-09-19T08:55:33;1.77;;;0.93;;
76417;SDS011;65250;47.602;19.002;2023-09-19T08:58:03;1.38;;;0.90;;
76417;SDS011;65250;47.602;19.002;2023-09-19T09:00:31;0.80;;;0.70;;
76417;SDS011;65250;47.602;19.002;2023-09-19T09:02:58;3.80;;;0.95;;
76417;SDS011;65250;47.602;19.002;2023-09-19T09:05:26;3.42;;;0.90;;
76417;SDS011;65250;47.602;19.002;2023-09-19T09:07:54;1.40;;;0.77;;
76417;SDS011;65250;47.602;19.002;2023-09-19T09:10:22;1.30;;;0.73;;
76417;SDS011;65250;47.602;19.002;2023-09-19T09:12:51;1.17;;;0.80;;
76417;SDS011;65250;47.602;19.002;2023-09-19T09:15:18;3.38;;;0.82;;
76417;SDS011;65250;47.602;19.002;2023-09-19T09:17:47;1.48;;;0.82;;
76417;SDS011;65250;47.602;19.002;2023-09-19T09:20:16;4.05;;;0.93;;
76417;SDS011;65250;47.602;19.002;2023-09-19T09:22:52;4.45;;;0.98;;
76417;SDS011;65250;47.602;19.002;2023-09-19T09:25:21;1.65;;;0.65;;
76417;SDS011;65250;47.602;19.002;2023-09-19T09:28:00;1.63;;;0.80;;
76417;SDS011;65250;47.602;19.002;2023-09-19T09:30:37;0.70;;;0.60;;
76417;SDS011;65250;47.602;19.002;2023-09-19T09:33:11;3.80;;;0.98;;
76417;SDS011;65250;47.602;19.002;2023-09-19T09:35:49;2.20;;;0.80;;
76417;SDS011;65250;47.602;19.002;2023-09-19T09:38:20;3.73;;;0.90;;
76417;SDS011;65250;47.602;19.002;2023-09-19T09:40:49;1.65;;;0.80;;
76417;SDS011;65250;47.602;19.002;2023-09-19T09:43:29;3.05;;;0.93;;
76417;SDS011;65250;47.602;19.002;2023-09-19T09:46:12;2.88;;;1.10;;
76417;SDS011;65250;47.602;19.002;2023-09-19T09:48:57;4.20;;;0.90;;
76417;SDS011;65250;47.602;19.002;2023-09-19T09:51:43;4.97;;;1.10;;
76417;SDS011;65250;47.602;19.002;2023-09-19T09:54:17;3.25;;;0.80;;
76417;SDS011;65250;47.602;19.002;2023-09-19T09:56:52;3.33;;;1.30;;
76417;SDS011;65250;47.602;19.002;2023-09-19T10:02:42;7.85;;;1.45;;
76417;SDS011;65250;47.602;19.002;2023-09-19T10:07:55;6.40;;;1.23;;
76417;SDS011;65250;47.602;19.002;2023-09-19T10:10:34;3.10;;;1.25;;
76417;SDS011;65250;47.602;19.002;2023-09-19T10:13:20;2.40;;;1.20;;
76417;SDS011;65250;47.602;19.002;2023-09-19T10:15:51;5.03;;;1.25;;
76417;SDS011;65250;47.602;19.002;2023-09-19T10:18:25;6.57;;;1.50;;
76417;SDS011;65250;47.602;19.002;2023-09-19T10:20:55;6.75;;;1.70;;
76417;SDS011;65250;47.602;19.002;2023-09-19T10:23:23;5.75;;;1.60;;
76417;SDS011;65250;47.602;19.002;2023-09-19T10:25:52;2.92;;;1.35;;
76417;SDS011;65250;47.602;19.002;2023-09-19T10:28:20;2.40;;;1.88;;
76417;SDS011;65250;47.602;19.002;2023-09-19T10:30:52;2.77;;;1.70;;
76417;SDS011;65250;47.602;19.002;2023-09-19T10:33:20;2.10;;;1.90;;
76417;SDS011;65250;47.602;19.002;2023-09-19T10:35:49;4.55;;;1.50;;
76417;SDS011;65250;47.602;19.002;2023-09-19T10:38:23;2.78;;;1.10;;
76417;SDS011;65250;47.602;19.002;2023-09-19T10:40:52;7.90;;;2.20;;
76417;SDS011;65250;47.602;19.002;2023-09-19T10:43:22;7.10;;;1.57;;
76417;SDS011;65250;47.602;19.002;2023-09-19T10:45:53;7.03;;;2.03;;
76417;SDS011;65250;47.602;19.002;2023-09-19T10:48:20;11.43;;;2.42;;
76417;SDS011;65250;47.602;19.002;2023-09-19T10:51:11;10.63;;;2.13;;
76417;SDS011;65250;47.602;19.002;2023-09-19T10:56:24;7.50;;;2.10;;
76417;SDS011;65250;47.602;19.002;2023-09-19T10:59:05;11.40;;;2.53;;
76417;SDS011;65250;47.602;19.002;2023-09-19T11:01:50;9.57;;;1.95;;
76417;SDS011;65250;47.602;19.002;2023-09-19T11:07:06;4.57;;;1.60;;
76417;SDS011;65250;47.602;19.002;2023-09-19T11:09:49;9.57;;;1.67;;
76417;SDS011;65250;47.602;19.002;2023-09-19T11:16:02;6.50;;;1.60;;
76417;SDS011;65250;47.602;19.002;2023-09-19T11:26:40;9.63;;;2.20;;
76417;SDS011;65250;47.602;19.002;2023-09-19T11:29:24;8.40;;;2.75;;
76417;SDS011;65250;47.602;19.002;2023-09-19T11:31:56;6.97;;;2.03;;
76417;SDS011;65250;47.602;19.002;2023-09-19T11:39:38;15.15;;;2.90;;
76417;SDS011;65250;47.602;19.002;2023-09-19T11:48:18;8.18;;;2.30;;
76417;SDS011;65250;47.602;19.002;2023-09-19T11:50:45;5.53;;;2.40;;
76417;SDS011;65250;47.602;19.002;2023-09-19T11:53:13;12.45;;;2.78;;
76417;SDS011;65250;47.602;19.002;2023-09-19T11:55:43;9.30;;;2.80;;
76417;SDS011;65250;47.602;19.002;2023-09-19T11:58:10;6.85;;;3.00;;
76417;SDS011;65250;47.602;19.002;2023-09-19T12:00:40;13.18;;;3.10;;
76417;SDS011;65250;47.602;19.002;2023-09-19T12:03:11;6.40;;;3.20;;
76417;SDS011;65250;47.602;19.002;2023-09-19T12:05:38;11.57;;;3.20;;
76417;SDS011;65250;47.602;19.002;2023-09-19T12:08:06;6.93;;;4.03;;
76417;SDS011;65250;47.602;19.002;2023-09-19T12:10:47;4.93;;;3.20;;
76417;SDS011;65250;47.602;19.002;2023-09-19T12:13:15;6.88;;;2.70;;
76417;SDS011;65250;47.602;19.002;2023-09-19T12:15:45;4.50;;;3.40;;
76417;SDS011;65250;47.602;19.002;2023-09-19T12:18:30;2.63;;;2.42;;
76417;SDS011;65250;47.602;19.002;2023-09-19T12:20:57;2.10;;;1.90;;
76417;SDS011;65250;47.602;19.002;2023-09-19T12:23:25;5.95;;;2.28;;
76417;SDS011;65250;47.602;19.002;2023-09-19T12:25:53;2.58;;;1.95;;
76417;SDS011;65250;47.602;19.002;2023-09-19T12:28:27;3.30;;;2.67;;
76417;SDS011;65250;47.602;19.002;2023-09-19T12:31:06;7.18;;;2.85;;
76417;SDS011;65250;47.602;19.002;2023-09-19T12:33:34;4.28;;;3.20;;
76417;SDS011;65250;47.602;19.002;2023-09-19T12:36:18;4.05;;;3.30;;
76417;SDS011;65250;47.602;19.002;2023-09-19T12:38:51;6.57;;;3.38;;
76417;SDS011;65250;47.602;19.002;2023-09-19T12:41:20;6.30;;;2.60;;
76417;SDS011;65250;47.602;19.002;2023-09-19T12:43:48;6.53;;;3.42;;
76417;SDS011;65250;47.602;19.002;2023-09-19T12:46:19;6.65;;;3.10;;
76417;SDS011;65250;47.602;19.002;2023-09-19T12:51:46;8.00;;;4.00;;
76417;SDS011;65250;47.602;19.002;2023-09-19T12:54:14;8.93;;;4.00;;
76417;SDS011;65250;47.602;19.002;2023-09-19T12:56:43;6.57;;;3.80;;
76417;SDS011;65250;47.602;19.002;2023-09-19T12:59:15;4.43;;;3.40;;
76417;SDS011;65250;47.602;19.002;2023-09-19T13:01:43;3.80;;;3.50;;
76417;SDS011;65250;47.602;19.002;2023-09-19T13:04:18;3.95;;;3.72;;
76417;SDS011;65250;47.602;19.002;2023-09-19T13:06:48;5.28;;;3.92;;
76417;SDS011;65250;47.602;19.002;2023-09-19T13:09:17;3.28;;;3.08;;
76417;SDS011;65250;47.602;19.002;2023-09-19T13:11:47;3.92;;;3.58;;
76417;SDS011;65250;47.602;19.002;2023-09-19T13:17:04;9.40;;;3.92;;
76417;SDS011;65250;47.602;19.002;2023-09-19T13:19:46;3.05;;;2.70;;
76417;SDS011;65250;47.602;19.002;2023-09-19T13:22:40;4.05;;;3.10;;
76417;SDS011;65250;47.602;19.002;2023-09-19T13:25:15;7.55;;;3.40;;
76417;SDS011;65250;47.602;19.002;2023-09-19T13:30:15;5.38;;;2.85;;
76417;SDS011;65250;47.602;19.002;2023-09-19T13:32:42;5.32;;;2.55;;
76417;SDS011;65250;47.602;19.002;2023-09-19T13:35:10;4.30;;;2.95;;
76417;SDS011;65250;47.602;19.002;2023-09-19T13:37:39;3.50;;;3.13;;
76417;SDS011;65250;47.602;19.002;2023-09-19T13:40:12;6.85;;;3.45;;
76417;SDS011;65250;47.602;19.002;2023-09-19T13:42:41;6.43;;;3.63;;
76417;SDS011;65250;47.602;19.002;2023-09-19T13:45:08;11.45;;;3.75;;
76417;SDS011;65250;47.602;19.002;2023-09-19T13:47:39;6.95;;;3.60;;
76417;SDS011;65250;47.602;19.002;2023-09-19T13:50:07;7.32;;;3.80;;
76417;SDS011;65250;47.602;19.002;2023-09-19T13:52:37;8.40;;;4.10;;
76417;SDS011;65250;47.602;19.002;2023-09-19T13:55:05;7.97;;;4.28;;
76417;SDS011;65250;47.602;19.002;2023-09-19T13:57:33;6.13;;;4.20;;
76417;SDS011;65250;47.602;19.002;2023-09-19T14:00:00;12.82;;;4.40;;
76417;SDS011;65250;47.602;19.002;2023-09-19T14:02:27;7.50;;;4.03;;
76417;SDS011;65250;47.602;19.002;2023-09-19T14:04:54;8.05;;;4.13;;
76417;SDS011;65250;47.602;19.002;2023-09-19T14:07:22;8.27;;;4.60;;
76417;SDS011;65250;47.602;19.002;2023-09-19T14:09:49;7.85;;;4.90;;
76417;SDS011;65250;47.602;19.002;2023-09-19T14:12:17;9.85;;;4.68;;
76417;SDS011;65250;47.602;19.002;2023-09-19T14:14:44;8.63;;;4.45;;
76417;SDS011;65250;47.602;19.002;2023-09-19T14:17:11;5.00;;;3.80;;
76417;SDS011;65250;47.602;19.002;2023-09-19T14:19:40;6.65;;;4.35;;
76417;SDS011;65250;47.602;19.002;2023-09-19T14:22:12;5.82;;;3.35;;
76417;SDS011;65250;47.602;19.002;2023-09-19T14:24:40;5.50;;;3.00;;
76417;SDS011;65250;47.602;19.002;2023-09-19T14:27:08;5.88;;;2.92;;
76417;SDS011;65250;47.602;19.002;2023-09-19T14:29:35;2.67;;;2.47;;
76417;SDS011;65250;47.602;19.002;2023-09-19T14:32:03;7.78;;;3.00;;
76417;SDS011;65250;47.602;19.002;2023-09-19T14:34:30;6.88;;;2.72;;
76417;SDS011;65250;47.602;19.002;2023-09-19T14:36:58;8.55;;;3.05;;
76417;SDS011;65250;47.602;19.002;2023-09-19T14:39:25;2.45;;;2.20;;
76417;SDS011;65250;47.602;19.002;2023-09-19T14:41:52;5.07;;;2.45;;
76417;SDS011;65250;47.602;19.002;2023-09-19T14:44:19;2.85;;;2.20;;
76417;SDS011;65250;47.602;19.002;2023-09-19T14:46:47;2.85;;;2.63;;
76417;SDS011;65250;47.602;19.002;2023-09-19T14:49:14;3.35;;;2.60;;
76417;SDS011;65250;47.602;19.002;2023-09-19T14:51:43;3.05;;;2.85;;
76417;SDS011;65250;47.602;19.002;2023-09-19T14:54:14;4.07;;;3.20;;
76417;SDS011;65250;47.602;19.002;2023-09-19T14:56:44;3.67;;;3.30;;
76417;SDS011;65250;47.602;19.002;2023-09-19T14:59:11;4.57;;;3.50;;
76417;SDS011;65250;47.602;19.002;2023-09-19T15:01:39;4.70;;;3.63;;
76417;SDS011;65250;47.602;19.002;2023-09-19T15:04:08;4.25;;;3.60;;
76417;SDS011;65250;47.602;19.002;2023-09-19T15:06:35;4.10;;;3.80;;
76417;SDS011;65250;47.602;19.002;2023-09-19T15:09:02;4.15;;;3.85;;
76417;SDS011;65250;47.602;19.002;2023-09-19T15:11:31;4.47;;;4.13;;
76417;SDS011;65250;47.602;19.002;2023-09-19T15:13:58;4.20;;;3.88;;
76417;SDS011;65250;47.602;19.002;2023-09-19T15:16:25;4.25;;;3.92;;
76417;SDS011;65250;47.602;19.002;2023-09-19T15:18:52;3.80;;;3.50;;
76417;SDS011;65250;47.602;19.002;2023-09-19T15:21:21;3.47;;;3.28;;
76417;SDS011;65250;47.602;19.002;2023-09-19T15:23:48;3.47;;;3.00;;
76417;SDS011;65250;47.602;19.002;2023-09-19T15:26:15;3.20;;;3.00;;
76417;SDS011;65250;47.602;19.002;2023-09-19T15:28:47;3.25;;;2.50;;
76417;SDS011;65250;47.602;19.002;2023-09-19T15:31:15;2.03;;;1.92;;
76417;SDS011;65250;47.602;19.002;2023-09-19T15:33:42;2.55;;;2.30;;
76417;SDS011;65250;47.602;19.002;2023-09-19T15:36:09;3.30;;;1.90;;
76417;SDS011;65250;47.602;19.002;2023-09-19T15:38:57;2.10;;;2.00;;
76417;SDS011;65250;47.602;19.002;2023-09-19T15:41:28;3.30;;;1.70;;
76417;SDS011;65250;47.602;19.002;2023-09-19T15:43:57;2.85;;;1.70;;
76417;SDS011;65250;47.602;19.002;2023-09-19T15:46:29;2.30;;;1.60;;